sensor_id;sensor_type;location;lat;lon;timestamp;P1;durP1;ratioP1;P2;durP2;ratioP2
79755;SDS011;69239;50.678;12.280;2023-12-14T00:00:24;8.52;;;5.22;;
79755;SDS011;69239;50.678;12.280;2023-12-14T00:02:49;8.48;;;4.55;;
79755;SDS011;69239;50.678;12.280;2023-12-14T00:05:15;7.03;;;4.78;;
79755;SDS011;69239;50.678;12.280;2023-12-14T00:07:40;7.57;;;4.63;;
79755;SDS011;69239;50.678;12.280;2023-12-14T00:10:06;8.98;;;4.43;;
79755;SDS011;69239;50.678;12.280;2023-12-14T00:12:31;7.15;;;4.40;;
79755;SDS011;69239;50.678;12.280;2023-12-14T00:14:57;12.63;;;5.70;;
79755;SDS011;69239;50.678;12.280;2023-12-14T00:17:22;7.45;;;4.85;;
79755;SDS011;69239;50.678;12.280;2023-12-14T00:19:48;8.63;;;4.70;;
79755;SDS011;69239;50.678;12.280;2023-12-14T00:22:13;10.07;;;5.35;;
79755;SDS011;69239;50.678;12.280;2023-12-14T00:24:38;7.60;;;5.13;;
79755;SDS011;69239;50.678;12.280;2023-12-14T00:27:04;8.40;;;5.30;;
79755;SDS011;69239;50.678;12.280;2023-12-14T00:29:29;8.50;;;5.20;;
79755;SDS011;69239;50.678;12.280;2023-12-14T00:31:55;8.48;;;5.28;;
79755;SDS011;69239;50.678;12.280;2023-12-14T00:34:20;9.15;;;5.30;;
79755;SDS011;69239;50.678;12.280;2023-12-14T00:36:45;7.88;;;5.45;;
79755;SDS011;69239;50.678;12.280;2023-12-14T00:39:11;8.43;;;5.85;;
79755;SDS011;69239;50.678;12.280;2023-12-14T00:41:36;8.73;;;5.05;;
79755;SDS011;69239;50.678;12.280;2023-12-14T00:44:02;8.15;;;5.15;;
79755;SDS011;69239;50.678;12.280;2023-12-14T00:46:27;9.60;;;5.35;;
79755;SDS011;69239;50.678;12.280;2023-12-14T00:48:53;8.30;;;5.03;;
79755;SDS011;69239;50.678;12.280;2023-12-14T00:51:18;12.00;;;6.03;;
79755;SDS011;69239;50.678;12.280;2023-12-14T00:53:43;9.65;;;6.22;;
79755;SDS011;69239;50.678;12.280;2023-12-14T00:56:09;7.10;;;4.95;;
79755;SDS011;69239;50.678;12.280;2023-12-14T00:58:34;9.63;;;5.93;;
79755;SDS011;69239;50.678;12.280;2023-12-14T01:01:00;8.50;;;4.63;;
79755;SDS011;69239;50.678;12.280;2023-12-14T01:03:25;8.18;;;5.40;;
79755;SDS011;69239;50.678;12.280;2023-12-14T01:05:50;10.82;;;5.55;;
79755;SDS011;69239;50.678;12.280;2023-12-14T01:08:16;10.07;;;5.63;;
79755;SDS011;69239;50.678;12.280;2023-12-14T01:10:41;8.73;;;4.55;;
79755;SDS011;69239;50.678;12.280;2023-12-14T01:13:07;8.93;;;4.93;;
79755;SDS011;69239;50.678;12.280;2023-12-14T01:15:33;6.97;;;4.57;;
79755;SDS011;69239;50.678;12.280;2023-12-14T01:17:58;7.55;;;4.80;;
79755;SDS011;69239;50.678;12.280;2023-12-14T01:20:23;8.38;;;5.43;;
79755;SDS011;69239;50.678;12.280;2023-12-14T01:22:49;6.80;;;4.25;;
79755;SDS011;69239;50.678;12.280;2023-12-14T01:25:14;7.85;;;5.03;;
79755;SDS011;69239;50.678;12.280;2023-12-14T01:27:40;8.32;;;5.10;;
79755;SDS011;69239;50.678;12.280;2023-12-14T01:30:05;7.97;;;5.28;;
79755;SDS011;69239;50.678;12.280;2023-12-14T01:32:31;6.72;;;4.38;;
79755;SDS011;69239;50.678;12.280;2023-12-14T01:34:57;7.43;;;4.63;;
79755;SDS011;69239;50.678;12.280;2023-12-14T01:37:22;5.65;;;4.18;;
79755;SDS011;69239;50.678;12.280;2023-12-14T01:39:48;7.63;;;4.25;;
79755;SDS011;69239;50.678;12.280;2023-12-14T01:42:13;6.28;;;3.63;;
79755;SDS011;69239;50.678;12.280;2023-12-14T01:44:38;6.47;;;3.15;;
79755;SDS011;69239;50.678;12.280;2023-12-14T01:47:04;6.18;;;4.30;;
79755;SDS011;69239;50.678;12.280;2023-12-14T01:49:29;9.80;;;4.65;;
79755;SDS011;69239;50.678;12.280;2023-12-14T01:51:55;5.63;;;3.70;;
79755;SDS011;69239;50.678;12.280;2023-12-14T01:54:20;6.45;;;4.13;;
79755;SDS011;69239;50.678;12.280;2023-12-14T01:56:46;5.75;;;3.92;;
79755;SDS011;69239;50.678;12.280;2023-12-14T01:59:11;6.70;;;4.47;;
79755;SDS011;69239;50.678;12.280;2023-12-14T02:01:44;8.75;;;4.68;;
79755;SDS011;69239;50.678;12.280;2023-12-14T02:04:11;7.63;;;4.80;;
79755;SDS011;69239;50.678;12.280;2023-12-14T02:06:38;6.45;;;4.05;;
79755;SDS011;69239;50.678;12.280;2023-12-14T02:09:04;7.13;;;4.68;;
79755;SDS011;69239;50.678;12.280;2023-12-14T02:11:29;6.07;;;4.03;;
79755;SDS011;69239;50.678;12.280;2023-12-14T02:13:55;7.30;;;4.35;;
79755;SDS011;69239;50.678;12.280;2023-12-14T02:16:20;6.70;;;4.57;;
79755;SDS011;69239;50.678;12.280;2023-12-14T02:18:46;9.55;;;4.60;;
79755;SDS011;69239;50.678;12.280;2023-12-14T02:21:11;8.68;;;4.60;;
79755;SDS011;69239;50.678;12.280;2023-12-14T02:23:43;6.07;;;4.05;;
79755;SDS011;69239;50.678;12.280;2023-12-14T02:26:09;6.68;;;3.67;;
79755;SDS011;69239;50.678;12.280;2023-12-14T02:28:35;6.78;;;3.90;;
79755;SDS011;69239;50.678;12.280;2023-12-14T02:31:00;6.97;;;3.88;;
79755;SDS011;69239;50.678;12.280;2023-12-14T02:33:26;5.28;;;3.50;;
79755;SDS011;69239;50.678;12.280;2023-12-14T02:35:51;4.68;;;3.30;;
79755;SDS011;69239;50.678;12.280;2023-12-14T02:38:17;5.55;;;3.42;;
79755;SDS011;69239;50.678;12.280;2023-12-14T02:40:42;4.68;;;3.08;;
79755;SDS011;69239;50.678;12.280;2023-12-14T02:43:07;4.78;;;3.10;;
79755;SDS011;69239;50.678;12.280;2023-12-14T02:45:33;4.78;;;3.20;;
79755;SDS011;69239;50.678;12.280;2023-12-14T02:47:58;5.22;;;3.63;;
79755;SDS011;69239;50.678;12.280;2023-12-14T02:50:24;4.88;;;3.08;;
79755;SDS011;69239;50.678;12.280;2023-12-14T02:52:49;5.03;;;3.50;;
79755;SDS011;69239;50.678;12.280;2023-12-14T02:55:14;6.57;;;3.70;;
79755;SDS011;69239;50.678;12.280;2023-12-14T02:57:40;6.28;;;3.90;;
79755;SDS011;69239;50.678;12.280;2023-12-14T03:00:05;6.07;;;3.78;;
79755;SDS011;69239;50.678;12.280;2023-12-14T03:02:31;5.72;;;3.50;;
79755;SDS011;69239;50.678;12.280;2023-12-14T03:04:56;6.55;;;4.15;;
79755;SDS011;69239;50.678;12.280;2023-12-14T03:07:22;5.45;;;3.58;;
79755;SDS011;69239;50.678;12.280;2023-12-14T03:09:47;4.93;;;3.05;;
79755;SDS011;69239;50.678;12.280;2023-12-14T03:12:12;5.28;;;3.10;;
79755;SDS011;69239;50.678;12.280;2023-12-14T03:14:38;5.65;;;3.67;;
79755;SDS011;69239;50.678;12.280;2023-12-14T03:17:05;5.60;;;3.25;;
79755;SDS011;69239;50.678;12.280;2023-12-14T03:19:31;4.38;;;3.03;;
79755;SDS011;69239;50.678;12.280;2023-12-14T03:21:57;5.20;;;3.47;;
79755;SDS011;69239;50.678;12.280;2023-12-14T03:24:22;4.32;;;2.80;;
79755;SDS011;69239;50.678;12.280;2023-12-14T03:26:48;5.38;;;3.50;;
79755;SDS011;69239;50.678;12.280;2023-12-14T03:29:13;5.15;;;3.05;;
79755;SDS011;69239;50.678;12.280;2023-12-14T03:31:39;5.30;;;3.60;;
79755;SDS011;69239;50.678;12.280;2023-12-14T03:34:05;6.57;;;3.60;;
79755;SDS011;69239;50.678;12.280;2023-12-14T03:36:30;5.75;;;3.55;;
79755;SDS011;69239;50.678;12.280;2023-12-14T03:38:56;4.70;;;2.92;;
79755;SDS011;69239;50.678;12.280;2023-12-14T03:41:21;5.68;;;3.33;;
79755;SDS011;69239;50.678;12.280;2023-12-14T03:43:46;6.45;;;3.70;;
79755;SDS011;69239;50.678;12.280;2023-12-14T03:46:12;4.35;;;2.70;;
79755;SDS011;69239;50.678;12.280;2023-12-14T03:48:37;5.07;;;3.17;;
79755;SDS011;69239;50.678;12.280;2023-12-14T03:51:03;4.20;;;2.75;;
79755;SDS011;69239;50.678;12.280;2023-12-14T03:53:29;4.68;;;2.67;;
79755;SDS011;69239;50.678;12.280;2023-12-14T03:55:55;5.10;;;3.45;;
79755;SDS011;69239;50.678;12.280;2023-12-14T03:58:20;3.70;;;2.55;;
79755;SDS011;69239;50.678;12.280;2023-12-14T04:00:46;5.32;;;2.70;;
79755;SDS011;69239;50.678;12.280;2023-12-14T04:03:11;4.50;;;2.63;;
79755;SDS011;69239;50.678;12.280;2023-12-14T04:05:36;3.67;;;2.60;;
79755;SDS011;69239;50.678;12.280;2023-12-14T04:08:03;3.58;;;2.13;;
79755;SDS011;69239;50.678;12.280;2023-12-14T04:10:29;3.85;;;2.35;;
79755;SDS011;69239;50.678;12.280;2023-12-14T04:12:55;4.30;;;2.33;;
79755;SDS011;69239;50.678;12.280;2023-12-14T04:15:20;3.47;;;2.00;;
79755;SDS011;69239;50.678;12.280;2023-12-14T04:17:45;3.42;;;1.90;;
79755;SDS011;69239;50.678;12.280;2023-12-14T04:20:12;2.05;;;1.63;;
79755;SDS011;69239;50.678;12.280;2023-12-14T04:22:38;1.88;;;1.02;;
79755;SDS011;69239;50.678;12.280;2023-12-14T04:25:03;2.40;;;1.52;;
79755;SDS011;69239;50.678;12.280;2023-12-14T04:27:29;2.17;;;0.98;;
79755;SDS011;69239;50.678;12.280;2023-12-14T04:29:55;1.40;;;0.93;;
79755;SDS011;69239;50.678;12.280;2023-12-14T04:32:20;1.70;;;1.23;;
79755;SDS011;69239;50.678;12.280;2023-12-14T04:34:46;1.33;;;1.05;;
79755;SDS011;69239;50.678;12.280;2023-12-14T04:37:12;1.55;;;1.25;;
79755;SDS011;69239;50.678;12.280;2023-12-14T04:39:37;1.50;;;1.10;;
79755;SDS011;69239;50.678;12.280;2023-12-14T04:42:02;4.53;;;1.48;;
79755;SDS011;69239;50.678;12.280;2023-12-14T04:44:28;2.42;;;1.60;;
79755;SDS011;69239;50.678;12.280;2023-12-14T04:46:53;3.60;;;1.80;;
79755;SDS011;69239;50.678;12.280;2023-12-14T04:49:19;3.78;;;1.83;;
79755;SDS011;69239;50.678;12.280;2023-12-14T04:51:44;3.20;;;1.70;;
79755;SDS011;69239;50.678;12.280;2023-12-14T04:54:10;3.13;;;1.27;;
79755;SDS011;69239;50.678;12.280;2023-12-14T04:56:35;6.00;;;1.65;;
79755;SDS011;69239;50.678;12.280;2023-12-14T04:59:01;4.00;;;2.30;;
79755;SDS011;69239;50.678;12.280;2023-12-14T05:01:27;6.38;;;2.53;;
79755;SDS011;69239;50.678;12.280;2023-12-14T05:03:52;6.43;;;2.50;;
79755;SDS011;69239;50.678;12.280;2023-12-14T05:06:18;8.98;;;3.83;;
79755;SDS011;69239;50.678;12.280;2023-12-14T05:08:44;8.70;;;4.38;;
79755;SDS011;69239;50.678;12.280;2023-12-14T05:11:10;14.52;;;4.30;;
79755;SDS011;69239;50.678;12.280;2023-12-14T05:13:37;7.85;;;3.75;;
79755;SDS011;69239;50.678;12.280;2023-12-14T05:16:03;7.32;;;4.10;;
79755;SDS011;69239;50.678;12.280;2023-12-14T05:18:28;8.55;;;3.65;;
79755;SDS011;69239;50.678;12.280;2023-12-14T05:20:54;7.10;;;3.40;;
79755;SDS011;69239;50.678;12.280;2023-12-14T05:23:20;7.85;;;3.60;;
79755;SDS011;69239;50.678;12.280;2023-12-14T05:25:45;6.13;;;2.60;;
79755;SDS011;69239;50.678;12.280;2023-12-14T05:28:11;4.90;;;2.35;;
79755;SDS011;69239;50.678;12.280;2023-12-14T05:30:36;6.18;;;2.40;;
79755;SDS011;69239;50.678;12.280;2023-12-14T05:33:01;6.00;;;2.67;;
79755;SDS011;69239;50.678;12.280;2023-12-14T05:35:27;4.35;;;2.33;;
79755;SDS011;69239;50.678;12.280;2023-12-14T05:37:52;6.32;;;2.85;;
79755;SDS011;69239;50.678;12.280;2023-12-14T05:40:18;4.10;;;2.17;;
79755;SDS011;69239;50.678;12.280;2023-12-14T05:42:44;4.72;;;2.55;;
79755;SDS011;69239;50.678;12.280;2023-12-14T05:45:09;4.65;;;2.40;;
79755;SDS011;69239;50.678;12.280;2023-12-14T05:47:35;3.67;;;1.80;;
79755;SDS011;69239;50.678;12.280;2023-12-14T05:50:00;4.72;;;2.63;;
79755;SDS011;69239;50.678;12.280;2023-12-14T05:52:26;4.93;;;2.33;;
79755;SDS011;69239;50.678;12.280;2023-12-14T05:54:52;4.45;;;2.03;;
79755;SDS011;69239;50.678;12.280;2023-12-14T05:57:18;3.15;;;1.85;;
79755;SDS011;69239;50.678;12.280;2023-12-14T05:59:43;4.63;;;2.22;;
79755;SDS011;69239;50.678;12.280;2023-12-14T06:02:09;3.33;;;2.05;;
79755;SDS011;69239;50.678;12.280;2023-12-14T06:04:34;2.85;;;1.77;;
79755;SDS011;69239;50.678;12.280;2023-12-14T06:07:00;2.10;;;1.30;;
79755;SDS011;69239;50.678;12.280;2023-12-14T06:09:26;1.60;;;1.20;;
79755;SDS011;69239;50.678;12.280;2023-12-14T06:11:59;2.85;;;1.30;;
79755;SDS011;69239;50.678;12.280;2023-12-14T06:14:25;2.60;;;1.30;;
79755;SDS011;69239;50.678;12.280;2023-12-14T06:16:51;2.88;;;1.33;;
79755;SDS011;69239;50.678;12.280;2023-12-14T06:19:16;1.45;;;1.25;;
79755;SDS011;69239;50.678;12.280;2023-12-14T06:21:42;2.17;;;1.30;;
79755;SDS011;69239;50.678;12.280;2023-12-14T06:24:07;2.83;;;1.55;;
79755;SDS011;69239;50.678;12.280;2023-12-14T06:26:32;2.05;;;1.33;;
79755;SDS011;69239;50.678;12.280;2023-12-14T06:28:58;2.00;;;1.30;;
79755;SDS011;69239;50.678;12.280;2023-12-14T06:31:23;2.15;;;1.25;;
79755;SDS011;69239;50.678;12.280;2023-12-14T06:33:49;3.20;;;1.65;;
79755;SDS011;69239;50.678;12.280;2023-12-14T06:36:17;2.58;;;1.45;;
79755;SDS011;69239;50.678;12.280;2023-12-14T06:38:44;1.95;;;1.10;;
79755;SDS011;69239;50.678;12.280;2023-12-14T06:41:22;2.63;;;1.30;;
79755;SDS011;69239;50.678;12.280;2023-12-14T06:43:48;2.25;;;1.38;;
79755;SDS011;69239;50.678;12.280;2023-12-14T06:46:14;1.83;;;1.20;;
79755;SDS011;69239;50.678;12.280;2023-12-14T06:48:40;2.40;;;1.45;;
79755;SDS011;69239;50.678;12.280;2023-12-14T06:51:05;2.75;;;1.40;;
79755;SDS011;69239;50.678;12.280;2023-12-14T06:53:31;3.28;;;1.83;;
79755;SDS011;69239;50.678;12.280;2023-12-14T06:55:56;3.88;;;1.92;;
79755;SDS011;69239;50.678;12.280;2023-12-14T06:58:22;4.35;;;2.25;;
79755;SDS011;69239;50.678;12.280;2023-12-14T07:00:47;3.65;;;2.03;;
79755;SDS011;69239;50.678;12.280;2023-12-14T07:03:13;5.55;;;2.72;;
79755;SDS011;69239;50.678;12.280;2023-12-14T07:05:39;5.32;;;2.65;;
79755;SDS011;69239;50.678;12.280;2023-12-14T07:08:04;4.97;;;2.63;;
79755;SDS011;69239;50.678;12.280;2023-12-14T07:10:30;6.45;;;3.10;;
79755;SDS011;69239;50.678;12.280;2023-12-14T07:12:56;6.50;;;2.83;;
79755;SDS011;69239;50.678;12.280;2023-12-14T07:15:21;6.10;;;2.97;;
79755;SDS011;69239;50.678;12.280;2023-12-14T07:17:47;6.93;;;3.30;;
79755;SDS011;69239;50.678;12.280;2023-12-14T07:20:12;8.23;;;3.45;;
79755;SDS011;69239;50.678;12.280;2023-12-14T07:22:38;6.75;;;3.60;;
79755;SDS011;69239;50.678;12.280;2023-12-14T07:25:04;7.45;;;3.53;;
79755;SDS011;69239;50.678;12.280;2023-12-14T07:27:29;6.43;;;3.40;;
79755;SDS011;69239;50.678;12.280;2023-12-14T07:29:55;6.75;;;3.20;;
79755;SDS011;69239;50.678;12.280;2023-12-14T07:32:20;7.70;;;4.07;;
79755;SDS011;69239;50.678;12.280;2023-12-14T07:34:46;8.85;;;3.83;;
79755;SDS011;69239;50.678;12.280;2023-12-14T07:37:12;10.35;;;4.78;;
79755;SDS011;69239;50.678;12.280;2023-12-14T07:39:38;11.55;;;5.75;;
79755;SDS011;69239;50.678;12.280;2023-12-14T07:42:03;9.07;;;5.00;;
79755;SDS011;69239;50.678;12.280;2023-12-14T07:44:30;10.27;;;5.18;;
79755;SDS011;69239;50.678;12.280;2023-12-14T07:46:56;11.10;;;5.20;;
79755;SDS011;69239;50.678;12.280;2023-12-14T07:49:21;12.07;;;5.93;;
79755;SDS011;69239;50.678;12.280;2023-12-14T07:51:48;16.67;;;6.55;;
79755;SDS011;69239;50.678;12.280;2023-12-14T07:54:14;15.15;;;5.88;;
79755;SDS011;69239;50.678;12.280;2023-12-14T07:56:40;10.60;;;4.97;;
79755;SDS011;69239;50.678;12.280;2023-12-14T07:59:05;9.77;;;5.05;;
79755;SDS011;69239;50.678;12.280;2023-12-14T08:01:32;11.95;;;4.65;;
79755;SDS011;69239;50.678;12.280;2023-12-14T08:03:59;11.57;;;5.47;;
79755;SDS011;69239;50.678;12.280;2023-12-14T08:06:24;13.95;;;6.07;;
79755;SDS011;69239;50.678;12.280;2023-12-14T08:08:50;22.40;;;5.45;;
79755;SDS011;69239;50.678;12.280;2023-12-14T08:11:15;15.25;;;5.50;;
79755;SDS011;69239;50.678;12.280;2023-12-14T08:13:41;11.35;;;5.18;;
79755;SDS011;69239;50.678;12.280;2023-12-14T08:16:07;11.20;;;5.28;;
79755;SDS011;69239;50.678;12.280;2023-12-14T08:18:33;14.85;;;5.15;;
79755;SDS011;69239;50.678;12.280;2023-12-14T08:20:59;15.70;;;5.22;;
79755;SDS011;69239;50.678;12.280;2023-12-14T08:23:24;17.10;;;5.55;;
79755;SDS011;69239;50.678;12.280;2023-12-14T08:25:52;9.27;;;4.95;;
79755;SDS011;69239;50.678;12.280;2023-12-14T08:28:22;12.23;;;5.75;;
79755;SDS011;69239;50.678;12.280;2023-12-14T08:30:47;10.13;;;4.78;;
79755;SDS011;69239;50.678;12.280;2023-12-14T08:33:13;11.07;;;4.80;;
79755;SDS011;69239;50.678;12.280;2023-12-14T08:35:39;11.20;;;4.28;;
79755;SDS011;69239;50.678;12.280;2023-12-14T08:38:04;10.50;;;5.43;;
79755;SDS011;69239;50.678;12.280;2023-12-14T08:40:29;10.68;;;4.47;;
79755;SDS011;69239;50.678;12.280;2023-12-14T08:42:55;8.60;;;4.57;;
79755;SDS011;69239;50.678;12.280;2023-12-14T08:45:22;8.80;;;4.35;;
79755;SDS011;69239;50.678;12.280;2023-12-14T08:47:47;8.68;;;4.00;;
79755;SDS011;69239;50.678;12.280;2023-12-14T08:50:12;13.07;;;5.70;;
79755;SDS011;69239;50.678;12.280;2023-12-14T08:52:38;11.52;;;5.28;;
79755;SDS011;69239;50.678;12.280;2023-12-14T08:55:03;10.10;;;4.72;;
79755;SDS011;69239;50.678;12.280;2023-12-14T08:57:29;13.05;;;5.10;;
79755;SDS011;69239;50.678;12.280;2023-12-14T08:59:56;10.10;;;4.65;;
79755;SDS011;69239;50.678;12.280;2023-12-14T09:02:21;9.70;;;4.90;;
79755;SDS011;69239;50.678;12.280;2023-12-14T09:04:47;9.82;;;4.85;;
79755;SDS011;69239;50.678;12.280;2023-12-14T09:07:12;11.40;;;5.10;;
79755;SDS011;69239;50.678;12.280;2023-12-14T09:09:37;12.43;;;5.30;;
79755;SDS011;69239;50.678;12.280;2023-12-14T09:12:03;11.23;;;5.70;;
79755;SDS011;69239;50.678;12.280;2023-12-14T09:14:28;11.18;;;5.25;;
79755;SDS011;69239;50.678;12.280;2023-12-14T09:16:54;10.20;;;5.75;;
79755;SDS011;69239;50.678;12.280;2023-12-14T09:19:20;10.85;;;5.43;;
79755;SDS011;69239;50.678;12.280;2023-12-14T09:21:45;12.60;;;5.82;;
79755;SDS011;69239;50.678;12.280;2023-12-14T09:24:11;9.02;;;4.28;;
79755;SDS011;69239;50.678;12.280;2023-12-14T09:26:37;7.68;;;3.95;;
79755;SDS011;69239;50.678;12.280;2023-12-14T09:29:02;9.88;;;5.10;;
79755;SDS011;69239;50.678;12.280;2023-12-14T09:31:27;8.70;;;4.07;;
79755;SDS011;69239;50.678;12.280;2023-12-14T09:33:53;10.68;;;4.80;;
79755;SDS011;69239;50.678;12.280;2023-12-14T09:36:18;8.10;;;4.47;;
79755;SDS011;69239;50.678;12.280;2023-12-14T09:38:44;8.45;;;4.57;;
79755;SDS011;69239;50.678;12.280;2023-12-14T09:41:10;11.30;;;4.53;;
79755;SDS011;69239;50.678;12.280;2023-12-14T09:43:37;8.50;;;4.53;;
79755;SDS011;69239;50.678;12.280;2023-12-14T09:46:02;12.55;;;5.18;;
79755;SDS011;69239;50.678;12.280;2023-12-14T09:48:29;9.52;;;4.57;;
79755;SDS011;69239;50.678;12.280;2023-12-14T09:50:55;7.63;;;4.13;;
79755;SDS011;69239;50.678;12.280;2023-12-14T09:53:20;6.80;;;3.90;;
79755;SDS011;69239;50.678;12.280;2023-12-14T09:55:46;7.65;;;3.78;;
79755;SDS011;69239;50.678;12.280;2023-12-14T09:58:11;9.23;;;4.80;;
79755;SDS011;69239;50.678;12.280;2023-12-14T10:00:41;6.90;;;3.47;;
79755;SDS011;69239;50.678;12.280;2023-12-14T10:03:17;5.22;;;3.13;;
79755;SDS011;69239;50.678;12.280;2023-12-14T10:05:51;7.57;;;3.83;;
79755;SDS011;69239;50.678;12.280;2023-12-14T10:08:18;7.75;;;3.88;;
79755;SDS011;69239;50.678;12.280;2023-12-14T10:10:44;5.93;;;3.33;;
79755;SDS011;69239;50.678;12.280;2023-12-14T10:13:11;7.03;;;3.13;;
79755;SDS011;69239;50.678;12.280;2023-12-14T10:15:41;5.78;;;2.78;;
79755;SDS011;69239;50.678;12.280;2023-12-14T10:18:07;5.78;;;2.60;;
79755;SDS011;69239;50.678;12.280;2023-12-14T10:20:33;5.03;;;2.78;;
79755;SDS011;69239;50.678;12.280;2023-12-14T10:22:58;5.80;;;3.33;;
79755;SDS011;69239;50.678;12.280;2023-12-14T10:25:24;7.32;;;3.47;;
79755;SDS011;69239;50.678;12.280;2023-12-14T10:27:52;3.60;;;2.45;;
79755;SDS011;69239;50.678;12.280;2023-12-14T10:30:18;4.50;;;2.38;;
79755;SDS011;69239;50.678;12.280;2023-12-14T10:32:45;5.65;;;2.60;;
79755;SDS011;69239;50.678;12.280;2023-12-14T10:35:14;4.43;;;2.72;;
79755;SDS011;69239;50.678;12.280;2023-12-14T10:37:41;3.83;;;2.38;;
79755;SDS011;69239;50.678;12.280;2023-12-14T10:40:07;4.57;;;2.80;;
79755;SDS011;69239;50.678;12.280;2023-12-14T10:42:35;4.13;;;2.70;;
79755;SDS011;69239;50.678;12.280;2023-12-14T10:45:02;7.18;;;4.20;;
79755;SDS011;69239;50.678;12.280;2023-12-14T10:47:29;6.47;;;3.38;;
79755;SDS011;69239;50.678;12.280;2023-12-14T10:49:55;6.43;;;4.38;;
79755;SDS011;69239;50.678;12.280;2023-12-14T10:52:22;4.18;;;2.00;;
79755;SDS011;69239;50.678;12.280;2023-12-14T10:54:49;3.42;;;2.38;;
79755;SDS011;69239;50.678;12.280;2023-12-14T10:57:19;3.97;;;2.60;;
79755;SDS011;69239;50.678;12.280;2023-12-14T10:59:48;3.95;;;2.45;;
79755;SDS011;69239;50.678;12.280;2023-12-14T11:02:14;3.10;;;1.63;;
79755;SDS011;69239;50.678;12.280;2023-12-14T11:04:56;4.70;;;2.10;;
79755;SDS011;69239;50.678;12.280;2023-12-14T11:10:09;3.35;;;2.03;;
79755;SDS011;69239;50.678;12.280;2023-12-14T11:12:36;2.88;;;1.80;;
79755;SDS011;69239;50.678;12.280;2023-12-14T11:15:02;3.15;;;2.00;;
79755;SDS011;69239;50.678;12.280;2023-12-14T11:17:29;3.60;;;2.10;;
79755;SDS011;69239;50.678;12.280;2023-12-14T11:19:55;3.22;;;1.77;;
79755;SDS011;69239;50.678;12.280;2023-12-14T11:22:24;3.97;;;2.28;;
79755;SDS011;69239;50.678;12.280;2023-12-14T11:24:53;3.05;;;1.98;;
79755;SDS011;69239;50.678;12.280;2023-12-14T11:27:26;3.65;;;1.95;;
79755;SDS011;69239;50.678;12.280;2023-12-14T11:29:54;3.25;;;1.92;;
79755;SDS011;69239;50.678;12.280;2023-12-14T11:32:19;4.72;;;2.38;;
79755;SDS011;69239;50.678;12.280;2023-12-14T11:34:45;4.35;;;2.50;;
79755;SDS011;69239;50.678;12.280;2023-12-14T11:37:12;3.60;;;2.08;;
79755;SDS011;69239;50.678;12.280;2023-12-14T11:39:38;2.92;;;1.92;;
79755;SDS011;69239;50.678;12.280;2023-12-14T11:42:04;2.53;;;2.03;;
79755;SDS011;69239;50.678;12.280;2023-12-14T11:44:33;2.83;;;1.90;;
79755;SDS011;69239;50.678;12.280;2023-12-14T11:46:59;4.22;;;2.28;;
79755;SDS011;69239;50.678;12.280;2023-12-14T11:49:25;3.45;;;2.50;;
79755;SDS011;69239;50.678;12.280;2023-12-14T11:51:54;4.18;;;2.33;;
79755;SDS011;69239;50.678;12.280;2023-12-14T11:54:20;3.15;;;1.98;;
79755;SDS011;69239;50.678;12.280;2023-12-14T11:56:46;4.32;;;2.17;;
79755;SDS011;69239;50.678;12.280;2023-12-14T11:59:14;3.42;;;2.10;;
79755;SDS011;69239;50.678;12.280;2023-12-14T12:01:53;3.83;;;2.15;;
79755;SDS011;69239;50.678;12.280;2023-12-14T12:04:22;3.28;;;1.98;;
79755;SDS011;69239;50.678;12.280;2023-12-14T12:06:48;4.38;;;2.22;;
79755;SDS011;69239;50.678;12.280;2023-12-14T12:09:14;4.75;;;2.50;;
79755;SDS011;69239;50.678;12.280;2023-12-14T12:11:58;3.80;;;2.40;;
79755;SDS011;69239;50.678;12.280;2023-12-14T12:14:23;3.40;;;2.20;;
79755;SDS011;69239;50.678;12.280;2023-12-14T12:16:49;4.60;;;1.98;;
79755;SDS011;69239;50.678;12.280;2023-12-14T12:19:17;5.75;;;1.95;;
79755;SDS011;69239;50.678;12.280;2023-12-14T12:21:43;3.33;;;1.83;;
79755;SDS011;69239;50.678;12.280;2023-12-14T12:24:09;2.95;;;1.95;;
79755;SDS011;69239;50.678;12.280;2023-12-14T12:26:34;3.72;;;1.70;;
79755;SDS011;69239;50.678;12.280;2023-12-14T12:29:00;2.58;;;1.67;;
79755;SDS011;69239;50.678;12.280;2023-12-14T12:31:26;2.65;;;1.83;;
79755;SDS011;69239;50.678;12.280;2023-12-14T12:33:52;1.98;;;1.48;;
79755;SDS011;69239;50.678;12.280;2023-12-14T12:36:17;2.25;;;1.60;;
79755;SDS011;69239;50.678;12.280;2023-12-14T12:38:43;2.42;;;1.60;;
79755;SDS011;69239;50.678;12.280;2023-12-14T12:41:08;2.35;;;1.77;;
79755;SDS011;69239;50.678;12.280;2023-12-14T12:43:33;1.50;;;1.05;;
79755;SDS011;69239;50.678;12.280;2023-12-14T12:45:59;1.25;;;1.08;;
79755;SDS011;69239;50.678;12.280;2023-12-14T12:48:24;1.50;;;1.05;;
79755;SDS011;69239;50.678;12.280;2023-12-14T12:50:50;2.65;;;1.15;;
79755;SDS011;69239;50.678;12.280;2023-12-14T12:53:15;1.85;;;1.40;;
79755;SDS011;69239;50.678;12.280;2023-12-14T12:55:40;2.42;;;1.40;;
79755;SDS011;69239;50.678;12.280;2023-12-14T12:58:06;2.20;;;1.40;;
79755;SDS011;69239;50.678;12.280;2023-12-14T13:00:33;2.13;;;1.23;;
79755;SDS011;69239;50.678;12.280;2023-12-14T13:03:00;3.13;;;1.60;;
79755;SDS011;69239;50.678;12.280;2023-12-14T13:05:27;2.05;;;1.50;;
79755;SDS011;69239;50.678;12.280;2023-12-14T13:07:53;2.30;;;1.30;;
79755;SDS011;69239;50.678;12.280;2023-12-14T13:10:19;3.17;;;1.65;;
79755;SDS011;69239;50.678;12.280;2023-12-14T13:12:50;3.92;;;1.65;;
79755;SDS011;69239;50.678;12.280;2023-12-14T13:15:15;2.50;;;1.40;;
79755;SDS011;69239;50.678;12.280;2023-12-14T13:17:42;1.92;;;1.30;;
79755;SDS011;69239;50.678;12.280;2023-12-14T13:20:08;2.42;;;1.35;;
79755;SDS011;69239;50.678;12.280;2023-12-14T13:22:34;1.77;;;1.10;;
79755;SDS011;69239;50.678;12.280;2023-12-14T13:25:00;2.35;;;1.10;;
79755;SDS011;69239;50.678;12.280;2023-12-14T13:27:25;2.85;;;1.50;;
79755;SDS011;69239;50.678;12.280;2023-12-14T13:29:51;2.65;;;1.35;;
79755;SDS011;69239;50.678;12.280;2023-12-14T13:32:16;2.92;;;1.65;;
79755;SDS011;69239;50.678;12.280;2023-12-14T13:34:41;2.47;;;1.45;;
79755;SDS011;69239;50.678;12.280;2023-12-14T13:37:07;2.47;;;1.38;;
79755;SDS011;69239;50.678;12.280;2023-12-14T13:39:34;2.72;;;1.73;;
79755;SDS011;69239;50.678;12.280;2023-12-14T13:42:04;3.30;;;1.58;;
79755;SDS011;69239;50.678;12.280;2023-12-14T13:44:30;4.38;;;1.70;;
79755;SDS011;69239;50.678;12.280;2023-12-14T13:46:56;3.08;;;1.45;;
79755;SDS011;69239;50.678;12.280;2023-12-14T13:49:22;4.38;;;1.50;;
79755;SDS011;69239;50.678;12.280;2023-12-14T13:51:47;3.22;;;1.67;;
79755;SDS011;69239;50.678;12.280;2023-12-14T13:54:13;2.50;;;1.63;;
79755;SDS011;69239;50.678;12.280;2023-12-14T13:56:38;2.85;;;1.60;;
79755;SDS011;69239;50.678;12.280;2023-12-14T13:59:04;2.90;;;1.60;;
79755;SDS011;69239;50.678;12.280;2023-12-14T14:01:29;2.65;;;1.52;;
79755;SDS011;69239;50.678;12.280;2023-12-14T14:03:55;3.60;;;1.88;;
79755;SDS011;69239;50.678;12.280;2023-12-14T14:06:20;2.45;;;1.70;;
79755;SDS011;69239;50.678;12.280;2023-12-14T14:08:48;2.60;;;1.58;;
79755;SDS011;69239;50.678;12.280;2023-12-14T14:11:13;2.58;;;1.60;;
79755;SDS011;69239;50.678;12.280;2023-12-14T14:13:39;3.05;;;1.60;;
79755;SDS011;69239;50.678;12.280;2023-12-14T14:16:06;1.90;;;1.55;;
79755;SDS011;69239;50.678;12.280;2023-12-14T14:18:32;1.95;;;1.20;;
79755;SDS011;69239;50.678;12.280;2023-12-14T14:20:58;1.58;;;1.10;;
79755;SDS011;69239;50.678;12.280;2023-12-14T14:23:24;1.30;;;0.80;;
79755;SDS011;69239;50.678;12.280;2023-12-14T14:25:51;1.55;;;1.10;;
79755;SDS011;69239;50.678;12.280;2023-12-14T14:28:19;2.47;;;0.90;;